createdAt,value
2023-04-11T00:03:43.236Z,16.55
2023-04-11T00:07:47.813Z,16.48
2023-04-11T00:11:52.224Z,16.23
2023-04-11T00:15:56.044Z,15.50
2023-04-11T00:20:01.906Z,16.60
2023-04-11T00:24:13.232Z,15.98
2023-04-11T00:28:20.401Z,17.23
2023-04-11T00:32:27.853Z,14.75
2023-04-11T00:36:32.992Z,16.65
2023-04-11T00:40:36.318Z,15.82
2023-04-11T00:44:40.878Z,15.80
2023-04-11T00:48:44.041Z,17.13
2023-04-11T00:52:49.511Z,18.45
2023-04-11T00:56:54.315Z,18.95
2023-04-11T01:00:58.976Z,19.48
2023-04-11T01:05:02.430Z,18.00
2023-04-11T01:09:05.466Z,18.42
2023-04-11T01:13:08.853Z,16.95
2023-04-11T01:17:14.538Z,18.95
2023-04-11T01:21:19.624Z,15.60
2023-04-11T01:25:27.502Z,15.73
2023-04-11T01:29:30.426Z,15.25
2023-04-11T01:33:33.273Z,15.13
2023-04-11T01:37:38.269Z,16.40
2023-04-11T01:41:43.732Z,13.88
2023-04-11T01:45:46.716Z,13.32
2023-04-11T01:49:50.931Z,12.38
2023-04-11T01:53:53.423Z,12.00
2023-04-11T01:57:57.867Z,13.18
2023-04-11T02:02:00.753Z,12.20
2023-04-11T02:06:04.074Z,13.45
2023-04-11T02:10:10.337Z,13.85
2023-04-11T02:14:16.629Z,12.07
2023-04-11T02:18:19.614Z,12.18
2023-04-11T02:22:22.671Z,11.57
2023-04-11T02:26:27.094Z,13.65
2023-04-11T02:30:31.946Z,12.30
2023-04-11T02:34:35.065Z,11.77
2023-04-11T02:38:37.811Z,12.35
2023-04-11T02:42:44.881Z,12.60
2023-04-11T02:46:49.184Z,11.88
2023-04-11T02:50:52.326Z,12.18
2023-04-11T02:54:55.352Z,11.40
2023-04-11T02:58:58.669Z,12.32
2023-04-11T03:03:07.730Z,12.38
2023-04-11T03:07:14.547Z,11.43
2023-04-11T03:11:17.626Z,12.30
2023-04-11T03:15:20.546Z,11.95
2023-04-11T03:19:28.060Z,12.60
2023-04-11T03:23:32.236Z,13.30
2023-04-11T03:27:35.313Z,13.80
2023-04-11T03:31:38.571Z,13.00
2023-04-11T03:35:42.934Z,13.15
2023-04-11T03:39:46.260Z,14.48
2023-04-11T03:43:48.986Z,15.77
2023-04-11T03:47:52.174Z,14.40
2023-04-11T03:51:59.260Z,14.93
2023-04-11T03:56:01.821Z,17.58
2023-04-11T04:00:07.760Z,18.65
2023-04-11T04:04:14.941Z,21.67
2023-04-11T04:08:19.541Z,19.65
2023-04-11T04:12:22.685Z,17.77
2023-04-11T04:20:28.392Z,17.77
2023-04-11T04:24:38.714Z,15.73
2023-04-11T04:28:46.221Z,16.20
2023-04-11T04:32:49.055Z,18.35
2023-04-11T04:36:56.692Z,16.35
2023-04-11T04:41:06.300Z,16.42
2023-04-11T04:45:10.648Z,18.70
2023-04-11T04:49:13.603Z,15.65
2023-04-11T04:53:16.582Z,16.50
2023-04-11T04:57:21.379Z,16.20
2023-04-11T05:01:27.998Z,17.75
2023-04-11T05:05:31.063Z,18.25
2023-04-11T05:09:34.184Z,21.85
2023-04-11T05:17:43.039Z,18.05
2023-04-11T05:21:50.326Z,14.07
2023-04-11T05:25:53.451Z,14.52
2023-04-11T05:30:05.276Z,13.90
2023-04-11T05:34:11.698Z,13.18
2023-04-11T05:38:14.829Z,13.05
2023-04-11T05:42:18.800Z,14.18
2023-04-11T05:46:26.020Z,13.43
2023-04-11T05:50:28.561Z,12.52
2023-04-11T05:54:36.120Z,12.95
2023-04-11T05:58:42.421Z,12.85
2023-04-11T06:02:48.057Z,10.55
2023-04-11T06:06:53.269Z,12.10
2023-04-11T06:10:56.130Z,10.85
2023-04-11T06:14:58.407Z,10.82
2023-04-11T06:19:02.611Z,9.93
2023-04-11T06:23:05.819Z,10.05
2023-04-11T06:27:11.010Z,9.50
2023-04-11T06:31:14.271Z,9.20
2023-04-11T06:35:20.729Z,9.10
2023-04-11T06:39:23.783Z,7.65
2023-04-11T06:43:26.985Z,8.73
2023-04-11T06:47:29.909Z,7.82
2023-04-11T06:51:34.747Z,7.22
2023-04-11T06:55:37.618Z,7.70
2023-04-11T06:59:40.445Z,8.20
2023-04-11T07:03:46.341Z,6.93
2023-04-11T07:07:54.287Z,7.20
2023-04-11T07:11:59.332Z,7.65
2023-04-11T07:16:04.208Z,8.73
2023-04-11T07:20:09.959Z,7.88
2023-04-11T07:24:14.572Z,7.63
2023-04-11T07:28:18.079Z,7.55
2023-04-11T07:32:22.093Z,6.03
2023-04-11T07:36:25.030Z,6.15
2023-04-11T07:40:29.841Z,5.50
2023-04-11T07:44:32.975Z,4.90
2023-04-11T07:48:38.333Z,4.90
2023-04-11T07:52:44.556Z,5.32
2023-04-11T07:56:51.045Z,4.50
2023-04-11T08:00:54.084Z,4.53
2023-04-11T08:04:57.435Z,4.65
2023-04-11T08:09:02.126Z,3.97
2023-04-11T08:13:06.502Z,3.85
2023-04-11T08:17:21.136Z,3.90
2023-04-11T08:21:33.305Z,3.95
2023-04-11T08:25:38.054Z,4.10
2023-04-11T08:29:42.531Z,3.80
2023-04-11T08:33:45.128Z,4.70
2023-04-11T08:37:53.962Z,4.00
2023-04-11T08:41:57.085Z,4.03
2023-04-11T08:46:03.095Z,3.78
2023-04-11T08:50:06.794Z,4.00
2023-04-11T08:54:10.890Z,3.38
2023-04-11T08:58:16.502Z,3.45
2023-04-11T09:02:22.034Z,3.80
2023-04-11T09:06:26.898Z,3.72
2023-04-11T09:10:29.944Z,3.15
2023-04-11T09:14:33.246Z,3.13
2023-04-11T09:18:41.584Z,3.53
2023-04-11T09:22:44.731Z,3.25
2023-04-11T09:26:49.702Z,3.30
2023-04-11T09:30:55.881Z,3.30
2023-04-11T09:35:17.289Z,3.92
2023-04-11T09:39:23.858Z,3.17
2023-04-11T09:43:26.849Z,2.80
2023-04-11T09:47:34.230Z,2.92
2023-04-11T09:51:38.671Z,3.03
2023-04-11T09:55:42.112Z,3.10
2023-04-11T09:59:46.087Z,3.47
2023-04-11T10:03:52.262Z,3.42
2023-04-11T10:08:03.348Z,3.75
2023-04-11T10:12:07.230Z,3.83
2023-04-11T10:16:12.631Z,4.07
2023-04-11T10:20:47.728Z,3.45
2023-04-11T10:25:18.209Z,3.42
2023-04-11T10:29:51.786Z,3.58
2023-04-11T10:34:16.121Z,3.50
2023-04-11T10:38:52.313Z,3.92
2023-04-11T10:43:22.771Z,3.45
2023-04-11T10:47:26.446Z,4.40
2023-04-11T10:51:30.328Z,2.90
2023-04-11T10:55:46.345Z,3.50
2023-04-11T11:00:16.378Z,3.33
2023-04-11T11:04:20.234Z,3.83
2023-04-11T11:08:30.897Z,3.75
2023-04-11T11:12:33.887Z,3.65
2023-04-11T11:16:38.478Z,3.85
2023-04-11T11:20:45.125Z,3.38
2023-04-11T11:24:48.324Z,4.63
2023-04-11T11:28:51.401Z,4.47
2023-04-11T11:32:59.301Z,4.65
2023-04-11T11:37:04.884Z,4.03
2023-04-11T11:41:08.217Z,4.47
2023-04-11T11:45:17.787Z,4.60
2023-04-11T11:49:22.193Z,4.75
2023-04-11T11:53:34.464Z,4.20
2023-04-11T11:57:38.323Z,5.25
2023-04-11T12:01:43.540Z,5.53
2023-04-11T12:05:53.987Z,4.57
2023-04-11T12:10:03.144Z,4.93
2023-04-11T12:14:05.796Z,5.93
2023-04-11T12:18:08.667Z,5.82
2023-04-11T12:22:13.242Z,6.10
2023-04-11T12:26:21.112Z,5.95
2023-04-11T12:30:26.786Z,6.65
2023-04-11T12:34:31.326Z,5.95
2023-04-11T12:38:38.194Z,6.75
2023-04-11T12:46:47.854Z,6.75
2023-04-11T12:50:53.428Z,6.68
2023-04-11T12:55:00.510Z,6.13
2023-04-11T12:59:03.499Z,5.38
2023-04-11T13:03:07.093Z,6.10
2023-04-11T13:07:10.209Z,6.47
2023-04-11T13:11:14.557Z,5.70
2023-04-11T13:15:18.112Z,5.43
2023-04-11T13:19:22.215Z,5.50
2023-04-11T13:23:26.604Z,5.72
2023-04-11T13:27:30.770Z,5.90
2023-04-11T13:31:33.832Z,5.80
2023-04-11T13:35:37.094Z,6.13
2023-04-11T13:39:43.794Z,5.82
2023-04-11T13:43:49.591Z,5.45
2023-04-11T13:47:52.724Z,5.55
2023-04-11T13:51:58.842Z,5.80
2023-04-11T13:56:04.023Z,6.18
2023-04-11T14:00:12.390Z,5.78
2023-04-11T14:04:15.458Z,5.10
2023-04-11T14:08:21.115Z,5.50
2023-04-11T14:12:28.317Z,5.43
2023-04-11T14:16:33.378Z,5.32
2023-04-11T14:20:36.335Z,5.60
2023-04-11T14:24:39.553Z,5.68
2023-04-11T14:28:42.680Z,5.70
2023-04-11T14:32:47.340Z,4.65
2023-04-11T14:36:52.621Z,4.22
2023-04-11T14:40:57.438Z,5.32
2023-04-11T14:45:03.630Z,5.47
2023-04-11T14:49:08.685Z,5.43
2023-04-11T14:53:11.744Z,5.55
2023-04-11T14:57:16.717Z,5.32
2023-04-11T15:01:20.403Z,5.32
2023-04-11T15:05:26.070Z,5.80
2023-04-11T15:09:29.131Z,4.03
2023-04-11T15:13:32.276Z,5.75
2023-04-11T15:17:41.997Z,5.20
2023-04-11T15:21:49.002Z,5.35
2023-04-11T15:25:55.562Z,5.70
2023-04-11T15:29:59.873Z,5.70
2023-04-11T15:34:04.291Z,5.50
2023-04-11T15:38:08.960Z,5.70
2023-04-11T15:42:14.529Z,5.70
2023-04-11T15:46:17.673Z,4.35
2023-04-11T15:50:20.983Z,5.55
2023-04-11T15:54:25.800Z,4.90
2023-04-11T15:58:30.489Z,4.82
2023-04-11T16:02:34.924Z,5.68
2023-04-11T16:06:37.868Z,5.28
2023-04-11T16:14:45.998Z,5.82
2023-04-11T16:18:48.721Z,5.63
2023-04-11T16:22:51.854Z,5.85
2023-04-11T16:26:57.208Z,4.95
2023-04-11T16:31:03.204Z,5.57
2023-04-11T16:35:07.481Z,5.88
2023-04-11T16:39:13.908Z,5.93
2023-04-11T16:43:18.444Z,5.93
2023-04-11T16:47:26.383Z,6.18
2023-04-11T16:51:31.211Z,6.18
2023-04-11T16:55:34.368Z,6.05
2023-04-11T16:59:39.077Z,5.95
2023-04-11T17:03:43.387Z,5.97
2023-04-11T17:07:46.860Z,5.97
2023-04-11T17:12:04.739Z,5.80
2023-04-11T17:16:10.565Z,5.90
2023-04-11T17:20:14.832Z,6.22
2023-04-11T17:24:18.028Z,6.20
2023-04-11T17:28:21.704Z,6.32
2023-04-11T17:32:28.885Z,5.45
2023-04-11T17:36:32.557Z,5.65
2023-04-11T17:40:35.605Z,6.57
2023-04-11T17:44:41.413Z,6.05
2023-04-11T17:48:46.534Z,5.95
2023-04-11T17:52:49.764Z,6.10
2023-04-11T17:56:53.226Z,6.65
2023-04-11T18:00:59.483Z,6.75
2023-04-11T18:05:13.307Z,6.03
2023-04-11T18:09:28.297Z,7.13
2023-04-11T18:13:31.826Z,7.38
2023-04-11T18:17:36.134Z,7.28
2023-04-11T18:21:41.746Z,7.53
2023-04-11T18:25:47.382Z,7.57
2023-04-11T18:29:52.224Z,7.88
2023-04-11T18:33:56.391Z,7.43
2023-04-11T18:38:15.758Z,7.55
2023-04-11T18:42:19.659Z,7.88
2023-04-11T18:46:24.282Z,8.43
2023-04-11T18:50:30.865Z,7.25
2023-04-11T18:54:34.487Z,9.00
2023-04-11T18:58:45.396Z,8.90
2023-04-11T19:02:50.913Z,10.43
2023-04-11T19:06:54.077Z,9.80
2023-04-11T19:10:58.699Z,10.40
2023-04-11T19:15:01.913Z,11.40
2023-04-11T19:19:07.603Z,12.45
2023-04-11T19:23:10.368Z,11.55
2023-04-11T19:27:18.511Z,10.88
2023-04-11T19:31:24.637Z,10.07
2023-04-11T19:35:27.903Z,10.93
2023-04-11T19:39:38.103Z,10.38
2023-04-11T19:43:43.543Z,10.55
2023-04-11T19:47:46.808Z,11.60
2023-04-11T19:51:50.083Z,11.43
2023-04-11T20:00:00.979Z,10.45
2023-04-11T20:04:07.340Z,11.00
2023-04-11T20:08:13.691Z,11.00
2023-04-11T20:12:16.789Z,11.65
2023-04-11T20:20:30.329Z,11.25
2023-04-11T20:24:33.486Z,10.88
2023-04-11T20:28:38.022Z,11.55
2023-04-11T20:32:43.468Z,12.52
2023-04-11T20:36:49.118Z,12.13
2023-04-11T20:40:55.475Z,11.55
2023-04-11T20:49:07.791Z,9.80
2023-04-11T20:53:10.677Z,11.07
2023-04-11T20:57:22.562Z,9.98
2023-04-11T21:01:26.578Z,11.68
2023-04-11T21:05:32.712Z,11.25
2023-04-11T21:09:36.598Z,9.98
2023-04-11T21:13:40.898Z,10.70
2023-04-11T21:17:47.745Z,11.02
2023-04-11T21:21:54.126Z,11.65
2023-04-11T21:26:09.676Z,12.05
2023-04-11T21:30:19.738Z,11.38
2023-04-11T21:34:31.999Z,11.13
2023-04-11T21:38:40.982Z,10.90
2023-04-11T21:42:46.429Z,10.93
2023-04-11T21:46:49.175Z,12.20
2023-04-11T21:50:52.322Z,10.93
2023-04-11T21:54:58.685Z,11.65
2023-04-11T21:59:01.515Z,12.15
2023-04-11T22:03:08.350Z,11.25
2023-04-11T22:07:14.821Z,12.05
2023-04-11T22:11:20.554Z,13.15
2023-04-11T22:15:24.507Z,12.35
2023-04-11T22:19:28.747Z,11.82
2023-04-11T22:23:33.290Z,12.73
2023-04-11T22:27:38.610Z,12.50
2023-04-11T22:31:42.081Z,9.77
2023-04-11T22:35:48.588Z,10.35
2023-04-11T22:39:51.838Z,12.57
2023-04-11T22:44:00.130Z,11.85
2023-04-11T22:48:04.439Z,10.65
2023-04-11T22:52:07.633Z,11.43
2023-04-11T22:56:11.997Z,11.88
2023-04-11T23:00:17.765Z,11.18
2023-04-11T23:04:22.279Z,9.85
2023-04-11T23:08:25.267Z,10.02
2023-04-11T23:12:30.151Z,9.27
2023-04-11T23:16:35.272Z,7.78
2023-04-11T23:20:38.604Z,6.25
2023-04-11T23:24:41.895Z,5.35
2023-04-11T23:28:45.185Z,4.70
2023-04-11T23:32:49.450Z,4.13
2023-04-11T23:36:54.272Z,3.55
2023-04-11T23:40:57.258Z,4.07
2023-04-11T23:45:00.157Z,3.42
2023-04-11T23:49:07.996Z,3.40
2023-04-11T23:53:10.981Z,3.78
2023-04-11T23:57:14.109Z,3.80
